CheckWX is a tool to help pilots better visualize weather data.  It is not intended as a substitute for an official pre-flight weather briefing.

12:33:06 UTC

KGWB METAR
De Kalb County Airport
Auburn, Indiana, USA
Current

18 mins ago

KGWB 191215Z AUTO 31009G15KT 10SM CLR M05/M08 A3047 RMK AO2
Observed
Feb-19 @ 12:15 UTC
Wind
  • 310° at 9 KTS
  • Gusting to 15 KTS
Visibility
10 SM
Flight Rules
VFR
Cloud Levels
  • Clear skies
Temperature
-5°C / 23°F
Dewpoint
-8°C / 18°F
Humidity
80%
Altimeter
30.47" Hg
Pressure
1031.82 hPa
Previous

38 mins ago

KGWB 191155Z AUTO 31008KT 10SM CLR M04/M07 A3046 RMK AO2
Observed
Feb-19 @ 11:55 UTC
Wind
  • 310° at 8 KTS
Visibility
10 SM
Flight Rules
VFR
Cloud Levels
  • Clear skies
Temperature
-4°C / 25°F
Dewpoint
-7°C / 19°F
Humidity
80%
Altimeter
30.46" Hg
Pressure
1031.52 hPa
Previous

58 mins ago

KGWB 191135Z AUTO 30009KT 10SM CLR M04/M07 A3045 RMK AO2
Observed
Feb-19 @ 11:35 UTC
Wind
  • 300° at 9 KTS
Visibility
10 SM
Flight Rules
VFR
Cloud Levels
  • Clear skies
Temperature
-4°C / 25°F
Dewpoint
-7°C / 19°F
Humidity
80%
Altimeter
30.45" Hg
Pressure
1031.12 hPa